sensor_id;sensor_type;location;lat;lon;timestamp;P1;durP1;ratioP1;P2;durP2;ratioP2
14094;SDS011;18096;48.142;16.290;2023-02-11T00:00:02;18.77;;;11.50;;
14094;SDS011;18096;48.142;16.290;2023-02-11T00:02:30;23.35;;;13.23;;
14094;SDS011;18096;48.142;16.290;2023-02-11T00:04:57;25.98;;;12.32;;
14094;SDS011;18096;48.142;16.290;2023-02-11T00:07:23;19.58;;;11.88;;
14094;SDS011;18096;48.142;16.290;2023-02-11T00:09:49;22.73;;;13.27;;
14094;SDS011;18096;48.142;16.290;2023-02-11T00:12:14;23.00;;;12.20;;
14094;SDS011;18096;48.142;16.290;2023-02-11T00:14:43;24.83;;;12.85;;
14094;SDS011;18096;48.142;16.290;2023-02-11T00:17:09;27.02;;;12.45;;
14094;SDS011;18096;48.142;16.290;2023-02-11T00:19:34;25.05;;;13.20;;
14094;SDS011;18096;48.142;16.290;2023-02-11T00:22:00;24.58;;;13.00;;
14094;SDS011;18096;48.142;16.290;2023-02-11T00:24:26;26.73;;;12.40;;
14094;SDS011;18096;48.142;16.290;2023-02-11T00:26:51;28.47;;;12.00;;
14094;SDS011;18096;48.142;16.290;2023-02-11T00:29:17;23.55;;;12.85;;
14094;SDS011;18096;48.142;16.290;2023-02-11T00:31:42;22.35;;;11.30;;
14094;SDS011;18096;48.142;16.290;2023-02-11T00:34:08;20.30;;;12.80;;
14094;SDS011;18096;48.142;16.290;2023-02-11T00:36:34;28.20;;;13.90;;
14094;SDS011;18096;48.142;16.290;2023-02-11T00:38:59;21.50;;;12.10;;
14094;SDS011;18096;48.142;16.290;2023-02-11T00:41:25;20.38;;;12.48;;
14094;SDS011;18096;48.142;16.290;2023-02-11T00:43:51;27.20;;;13.00;;
14094;SDS011;18096;48.142;16.290;2023-02-11T00:46:17;26.20;;;13.20;;
14094;SDS011;18096;48.142;16.290;2023-02-11T00:48:43;21.75;;;12.35;;
14094;SDS011;18096;48.142;16.290;2023-02-11T00:51:09;26.00;;;13.40;;
14094;SDS011;18096;48.142;16.290;2023-02-11T00:53:35;23.45;;;11.85;;
14094;SDS011;18096;48.142;16.290;2023-02-11T00:56:02;24.90;;;13.27;;
14094;SDS011;18096;48.142;16.290;2023-02-11T00:58:28;21.87;;;13.43;;
14094;SDS011;18096;48.142;16.290;2023-02-11T01:00:54;27.37;;;14.13;;
14094;SDS011;18096;48.142;16.290;2023-02-11T01:03:20;22.80;;;13.57;;
14094;SDS011;18096;48.142;16.290;2023-02-11T01:05:45;26.67;;;13.43;;
14094;SDS011;18096;48.142;16.290;2023-02-11T01:08:11;27.50;;;13.20;;
14094;SDS011;18096;48.142;16.290;2023-02-11T01:10:37;26.40;;;14.33;;
14094;SDS011;18096;48.142;16.290;2023-02-11T01:13:03;25.53;;;13.50;;
14094;SDS011;18096;48.142;16.290;2023-02-11T01:15:30;25.15;;;13.95;;
14094;SDS011;18096;48.142;16.290;2023-02-11T01:17:56;24.00;;;12.57;;
14094;SDS011;18096;48.142;16.290;2023-02-11T01:20:24;25.50;;;13.45;;
14094;SDS011;18096;48.142;16.290;2023-02-11T01:22:51;24.47;;;13.53;;
14094;SDS011;18096;48.142;16.290;2023-02-11T01:25:17;22.43;;;13.40;;
14094;SDS011;18096;48.142;16.290;2023-02-11T01:27:43;23.83;;;14.20;;
14094;SDS011;18096;48.142;16.290;2023-02-11T01:30:09;26.92;;;13.57;;
14094;SDS011;18096;48.142;16.290;2023-02-11T01:32:38;26.70;;;13.82;;
14094;SDS011;18096;48.142;16.290;2023-02-11T01:35:04;26.60;;;12.75;;
14094;SDS011;18096;48.142;16.290;2023-02-11T01:37:34;22.77;;;12.73;;
14094;SDS011;18096;48.142;16.290;2023-02-11T01:40:00;21.50;;;13.45;;
14094;SDS011;18096;48.142;16.290;2023-02-11T01:42:27;22.33;;;13.20;;
14094;SDS011;18096;48.142;16.290;2023-02-11T01:44:53;22.10;;;13.30;;
14094;SDS011;18096;48.142;16.290;2023-02-11T01:47:19;26.77;;;13.07;;
14094;SDS011;18096;48.142;16.290;2023-02-11T01:49:50;30.70;;;13.15;;
14094;SDS011;18096;48.142;16.290;2023-02-11T01:52:20;20.80;;;12.90;;
14094;SDS011;18096;48.142;16.290;2023-02-11T01:54:52;27.98;;;12.95;;
14094;SDS011;18096;48.142;16.290;2023-02-11T01:57:40;24.35;;;12.65;;
14094;SDS011;18096;48.142;16.290;2023-02-11T02:08:22;29.13;;;13.18;;
14094;SDS011;18096;48.142;16.290;2023-02-11T02:10:55;21.23;;;13.60;;
14094;SDS011;18096;48.142;16.290;2023-02-11T02:13:24;21.30;;;12.83;;
14094;SDS011;18096;48.142;16.290;2023-02-11T02:15:52;23.10;;;13.65;;
14094;SDS011;18096;48.142;16.290;2023-02-11T02:26:53;29.10;;;14.35;;
14094;SDS011;18096;48.142;16.290;2023-02-11T02:40:14;26.13;;;14.65;;
14094;SDS011;18096;48.142;16.290;2023-02-11T02:42:47;24.52;;;14.43;;
14094;SDS011;18096;48.142;16.290;2023-02-11T02:45:15;19.90;;;12.32;;
14094;SDS011;18096;48.142;16.290;2023-02-11T02:47:41;27.92;;;14.73;;
14094;SDS011;18096;48.142;16.290;2023-02-11T02:50:07;29.27;;;15.38;;
14094;SDS011;18096;48.142;16.290;2023-02-11T02:55:23;24.42;;;15.98;;
14094;SDS011;18096;48.142;16.290;2023-02-11T02:58:04;29.70;;;16.15;;
14094;SDS011;18096;48.142;16.290;2023-02-11T03:00:46;33.72;;;16.00;;
14094;SDS011;18096;48.142;16.290;2023-02-11T03:06:47;31.75;;;15.80;;
14094;SDS011;18096;48.142;16.290;2023-02-11T03:09:22;24.38;;;15.30;;
14094;SDS011;18096;48.142;16.290;2023-02-11T03:11:48;29.25;;;15.30;;
14094;SDS011;18096;48.142;16.290;2023-02-11T03:14:14;29.90;;;16.03;;
14094;SDS011;18096;48.142;16.290;2023-02-11T03:16:42;32.63;;;16.95;;
14094;SDS011;18096;48.142;16.290;2023-02-11T03:21:41;29.77;;;17.20;;
14094;SDS011;18096;48.142;16.290;2023-02-11T03:24:11;35.88;;;16.67;;
14094;SDS011;18096;48.142;16.290;2023-02-11T03:26:45;27.60;;;16.33;;
14094;SDS011;18096;48.142;16.290;2023-02-11T03:29:30;35.80;;;17.13;;
14094;SDS011;18096;48.142;16.290;2023-02-11T03:32:18;31.08;;;17.20;;
14094;SDS011;18096;48.142;16.290;2023-02-11T03:40:09;31.17;;;17.60;;
14094;SDS011;18096;48.142;16.290;2023-02-11T03:42:43;31.98;;;18.00;;
14094;SDS011;18096;48.142;16.290;2023-02-11T03:45:21;35.70;;;18.35;;
14094;SDS011;18096;48.142;16.290;2023-02-11T03:47:56;31.27;;;17.48;;
14094;SDS011;18096;48.142;16.290;2023-02-11T03:50:29;35.15;;;19.30;;
14094;SDS011;18096;48.142;16.290;2023-02-11T03:52:59;31.45;;;17.92;;
14094;SDS011;18096;48.142;16.290;2023-02-11T03:55:26;31.50;;;17.00;;
14094;SDS011;18096;48.142;16.290;2023-02-11T03:57:54;28.77;;;17.45;;
14094;SDS011;18096;48.142;16.290;2023-02-11T04:00:20;40.17;;;19.17;;
14094;SDS011;18096;48.142;16.290;2023-02-11T04:02:53;29.55;;;17.80;;
14094;SDS011;18096;48.142;16.290;2023-02-11T04:05:18;29.25;;;17.48;;
14094;SDS011;18096;48.142;16.290;2023-02-11T04:07:44;37.50;;;19.15;;
14094;SDS011;18096;48.142;16.290;2023-02-11T04:10:10;34.00;;;17.73;;
14094;SDS011;18096;48.142;16.290;2023-02-11T04:12:36;36.90;;;19.38;;
14094;SDS011;18096;48.142;16.290;2023-02-11T04:15:02;29.50;;;18.53;;
14094;SDS011;18096;48.142;16.290;2023-02-11T04:17:28;33.67;;;18.13;;
14094;SDS011;18096;48.142;16.290;2023-02-11T04:19:54;33.87;;;17.77;;
14094;SDS011;18096;48.142;16.290;2023-02-11T04:22:19;32.80;;;18.05;;
14094;SDS011;18096;48.142;16.290;2023-02-11T04:24:45;29.73;;;17.48;;
14094;SDS011;18096;48.142;16.290;2023-02-11T04:27:11;32.00;;;19.25;;
14094;SDS011;18096;48.142;16.290;2023-02-11T04:29:36;32.63;;;18.43;;
14094;SDS011;18096;48.142;16.290;2023-02-11T04:32:02;33.10;;;19.50;;
14094;SDS011;18096;48.142;16.290;2023-02-11T04:34:28;34.15;;;18.60;;
14094;SDS011;18096;48.142;16.290;2023-02-11T04:36:53;39.30;;;19.77;;
14094;SDS011;18096;48.142;16.290;2023-02-11T04:39:19;34.80;;;18.38;;
14094;SDS011;18096;48.142;16.290;2023-02-11T04:41:45;34.37;;;18.07;;
14094;SDS011;18096;48.142;16.290;2023-02-11T04:44:10;32.17;;;17.30;;
14094;SDS011;18096;48.142;16.290;2023-02-11T04:46:36;34.50;;;17.83;;
14094;SDS011;18096;48.142;16.290;2023-02-11T04:49:02;38.50;;;19.52;;
14094;SDS011;18096;48.142;16.290;2023-02-11T04:51:28;33.70;;;18.55;;
14094;SDS011;18096;48.142;16.290;2023-02-11T04:53:53;27.65;;;17.60;;
14094;SDS011;18096;48.142;16.290;2023-02-11T04:56:19;29.50;;;17.93;;
14094;SDS011;18096;48.142;16.290;2023-02-11T04:58:45;38.90;;;19.20;;
14094;SDS011;18096;48.142;16.290;2023-02-11T05:01:12;34.97;;;18.77;;
14094;SDS011;18096;48.142;16.290;2023-02-11T05:03:39;42.47;;;18.98;;
14094;SDS011;18096;48.142;16.290;2023-02-11T05:06:06;36.70;;;19.13;;
14094;SDS011;18096;48.142;16.290;2023-02-11T05:08:33;36.58;;;18.90;;
14094;SDS011;18096;48.142;16.290;2023-02-11T05:10:58;38.30;;;18.30;;
14094;SDS011;18096;48.142;16.290;2023-02-11T05:13:26;32.45;;;19.23;;
14094;SDS011;18096;48.142;16.290;2023-02-11T05:15:52;28.40;;;19.02;;
14094;SDS011;18096;48.142;16.290;2023-02-11T05:18:17;28.98;;;18.77;;
14094;SDS011;18096;48.142;16.290;2023-02-11T05:20:43;42.08;;;18.85;;
14094;SDS011;18096;48.142;16.290;2023-02-11T05:23:09;30.38;;;17.85;;
14094;SDS011;18096;48.142;16.290;2023-02-11T05:25:36;33.45;;;17.20;;
14094;SDS011;18096;48.142;16.290;2023-02-11T05:28:02;28.80;;;17.70;;
14094;SDS011;18096;48.142;16.290;2023-02-11T05:30:28;30.48;;;17.35;;
14094;SDS011;18096;48.142;16.290;2023-02-11T05:32:54;37.37;;;19.27;;
14094;SDS011;18096;48.142;16.290;2023-02-11T05:35:20;27.60;;;16.50;;
14094;SDS011;18096;48.142;16.290;2023-02-11T05:37:45;29.60;;;17.57;;
14094;SDS011;18096;48.142;16.290;2023-02-11T05:40:11;31.27;;;16.05;;
14094;SDS011;18096;48.142;16.290;2023-02-11T05:42:37;32.20;;;16.73;;
14094;SDS011;18096;48.142;16.290;2023-02-11T05:45:03;30.30;;;15.55;;
14094;SDS011;18096;48.142;16.290;2023-02-11T05:47:29;29.37;;;15.07;;
14094;SDS011;18096;48.142;16.290;2023-02-11T05:49:55;26.80;;;15.47;;
14094;SDS011;18096;48.142;16.290;2023-02-11T05:52:21;27.75;;;14.68;;
14094;SDS011;18096;48.142;16.290;2023-02-11T05:54:47;28.25;;;13.75;;
14094;SDS011;18096;48.142;16.290;2023-02-11T05:57:13;21.63;;;13.70;;
14094;SDS011;18096;48.142;16.290;2023-02-11T05:59:39;24.80;;;14.20;;
14094;SDS011;18096;48.142;16.290;2023-02-11T06:02:05;26.77;;;13.20;;
14094;SDS011;18096;48.142;16.290;2023-02-11T06:04:32;24.15;;;14.38;;
14094;SDS011;18096;48.142;16.290;2023-02-11T06:06:58;24.13;;;13.05;;
14094;SDS011;18096;48.142;16.290;2023-02-11T06:09:24;24.17;;;13.43;;
14094;SDS011;18096;48.142;16.290;2023-02-11T06:11:50;25.87;;;14.23;;
14094;SDS011;18096;48.142;16.290;2023-02-11T06:14:16;21.70;;;13.40;;
14094;SDS011;18096;48.142;16.290;2023-02-11T06:16:41;22.00;;;14.17;;
14094;SDS011;18096;48.142;16.290;2023-02-11T06:19:07;21.45;;;13.57;;
14094;SDS011;18096;48.142;16.290;2023-02-11T06:21:33;22.38;;;13.70;;
14094;SDS011;18096;48.142;16.290;2023-02-11T06:23:59;25.73;;;13.80;;
14094;SDS011;18096;48.142;16.290;2023-02-11T06:26:24;24.40;;;14.40;;
14094;SDS011;18096;48.142;16.290;2023-02-11T06:28:50;22.47;;;13.77;;
14094;SDS011;18096;48.142;16.290;2023-02-11T06:31:16;23.63;;;14.10;;
14094;SDS011;18096;48.142;16.290;2023-02-11T06:33:42;26.23;;;14.50;;
14094;SDS011;18096;48.142;16.290;2023-02-11T06:36:15;28.93;;;14.93;;
14094;SDS011;18096;48.142;16.290;2023-02-11T06:38:42;23.08;;;13.95;;
14094;SDS011;18096;48.142;16.290;2023-02-11T06:41:11;22.67;;;14.10;;
14094;SDS011;18096;48.142;16.290;2023-02-11T06:43:39;24.90;;;14.70;;
14094;SDS011;18096;48.142;16.290;2023-02-11T06:46:05;25.03;;;14.00;;
14094;SDS011;18096;48.142;16.290;2023-02-11T06:48:31;26.10;;;13.52;;
14094;SDS011;18096;48.142;16.290;2023-02-11T06:51:01;24.65;;;14.57;;
14094;SDS011;18096;48.142;16.290;2023-02-11T06:53:39;25.23;;;14.93;;
14094;SDS011;18096;48.142;16.290;2023-02-11T06:56:08;31.17;;;15.07;;
14094;SDS011;18096;48.142;16.290;2023-02-11T06:58:35;28.60;;;13.80;;
14094;SDS011;18096;48.142;16.290;2023-02-11T07:01:05;19.85;;;13.52;;
14094;SDS011;18096;48.142;16.290;2023-02-11T07:03:34;37.08;;;14.40;;
14094;SDS011;18096;48.142;16.290;2023-02-11T07:06:05;23.50;;;13.15;;
14094;SDS011;18096;48.142;16.290;2023-02-11T07:08:35;25.80;;;12.83;;
14094;SDS011;18096;48.142;16.290;2023-02-11T07:11:09;22.25;;;12.63;;
14094;SDS011;18096;48.142;16.290;2023-02-11T07:13:43;24.15;;;12.88;;
14094;SDS011;18096;48.142;16.290;2023-02-11T07:16:10;30.10;;;13.88;;
14094;SDS011;18096;48.142;16.290;2023-02-11T07:18:38;23.00;;;12.65;;
14094;SDS011;18096;48.142;16.290;2023-02-11T07:21:08;26.33;;;12.30;;
14094;SDS011;18096;48.142;16.290;2023-02-11T07:23:35;20.42;;;11.18;;
14094;SDS011;18096;48.142;16.290;2023-02-11T07:26:05;19.10;;;12.40;;
14094;SDS011;18096;48.142;16.290;2023-02-11T07:28:32;23.00;;;12.13;;
14094;SDS011;18096;48.142;16.290;2023-02-11T07:31:04;22.67;;;11.80;;
14094;SDS011;18096;48.142;16.290;2023-02-11T07:33:34;24.20;;;13.02;;
14094;SDS011;18096;48.142;16.290;2023-02-11T07:36:01;38.17;;;13.70;;
14094;SDS011;18096;48.142;16.290;2023-02-11T07:38:28;20.20;;;12.32;;
14094;SDS011;18096;48.142;16.290;2023-02-11T07:40:58;30.13;;;13.60;;
14094;SDS011;18096;48.142;16.290;2023-02-11T07:43:25;25.60;;;13.93;;
14094;SDS011;18096;48.142;16.290;2023-02-11T07:45:50;26.55;;;14.43;;
14094;SDS011;18096;48.142;16.290;2023-02-11T07:48:16;23.42;;;12.80;;
14094;SDS011;18096;48.142;16.290;2023-02-11T07:50:42;23.10;;;13.83;;
14094;SDS011;18096;48.142;16.290;2023-02-11T07:53:08;21.30;;;13.13;;
14094;SDS011;18096;48.142;16.290;2023-02-11T07:55:33;25.38;;;13.95;;
14094;SDS011;18096;48.142;16.290;2023-02-11T07:57:59;20.33;;;11.40;;
14094;SDS011;18096;48.142;16.290;2023-02-11T08:00:25;21.07;;;11.80;;
14094;SDS011;18096;48.142;16.290;2023-02-11T08:02:50;22.27;;;13.50;;
14094;SDS011;18096;48.142;16.290;2023-02-11T08:05:16;25.37;;;13.53;;
14094;SDS011;18096;48.142;16.290;2023-02-11T08:07:42;33.28;;;14.30;;
14094;SDS011;18096;48.142;16.290;2023-02-11T08:10:08;25.63;;;12.35;;
14094;SDS011;18096;48.142;16.290;2023-02-11T08:12:34;20.88;;;12.10;;
14094;SDS011;18096;48.142;16.290;2023-02-11T08:14:59;22.35;;;12.23;;
14094;SDS011;18096;48.142;16.290;2023-02-11T08:17:25;35.40;;;14.47;;
14094;SDS011;18096;48.142;16.290;2023-02-11T08:19:51;22.20;;;12.80;;
14094;SDS011;18096;48.142;16.290;2023-02-11T08:22:16;20.58;;;12.27;;
14094;SDS011;18096;48.142;16.290;2023-02-11T08:24:42;25.88;;;12.65;;
14094;SDS011;18096;48.142;16.290;2023-02-11T08:27:08;30.33;;;13.80;;
14094;SDS011;18096;48.142;16.290;2023-02-11T08:29:33;24.90;;;12.70;;
14094;SDS011;18096;48.142;16.290;2023-02-11T08:31:59;31.45;;;13.02;;
14094;SDS011;18096;48.142;16.290;2023-02-11T08:34:25;26.98;;;11.88;;
14094;SDS011;18096;48.142;16.290;2023-02-11T08:36:50;22.60;;;12.40;;
14094;SDS011;18096;48.142;16.290;2023-02-11T08:39:20;21.90;;;12.13;;
14094;SDS011;18096;48.142;16.290;2023-02-11T08:41:47;24.60;;;12.43;;
14094;SDS011;18096;48.142;16.290;2023-02-11T08:44:16;23.77;;;12.50;;
14094;SDS011;18096;48.142;16.290;2023-02-11T08:46:42;21.75;;;12.40;;
14094;SDS011;18096;48.142;16.290;2023-02-11T08:49:08;28.40;;;12.77;;
14094;SDS011;18096;48.142;16.290;2023-02-11T08:51:33;26.60;;;12.37;;
14094;SDS011;18096;48.142;16.290;2023-02-11T08:53:59;21.58;;;12.93;;
14094;SDS011;18096;48.142;16.290;2023-02-11T08:56:25;28.48;;;13.15;;
14094;SDS011;18096;48.142;16.290;2023-02-11T08:58:52;24.80;;;12.80;;
14094;SDS011;18096;48.142;16.290;2023-02-11T09:01:22;23.98;;;13.60;;
14094;SDS011;18096;48.142;16.290;2023-02-11T09:03:51;26.10;;;11.90;;
14094;SDS011;18096;48.142;16.290;2023-02-11T09:06:17;26.38;;;13.57;;
14094;SDS011;18096;48.142;16.290;2023-02-11T09:08:45;23.13;;;12.35;;
14094;SDS011;18096;48.142;16.290;2023-02-11T09:11:13;23.75;;;13.15;;
14094;SDS011;18096;48.142;16.290;2023-02-11T09:13:40;28.48;;;12.90;;
14094;SDS011;18096;48.142;16.290;2023-02-11T09:16:07;23.63;;;12.67;;
14094;SDS011;18096;48.142;16.290;2023-02-11T09:18:38;25.00;;;11.80;;
14094;SDS011;18096;48.142;16.290;2023-02-11T09:21:05;24.90;;;13.30;;
14094;SDS011;18096;48.142;16.290;2023-02-11T09:23:33;33.30;;;14.02;;
14094;SDS011;18096;48.142;16.290;2023-02-11T09:26:06;25.50;;;13.23;;
14094;SDS011;18096;48.142;16.290;2023-02-11T09:28:33;28.80;;;13.55;;
14094;SDS011;18096;48.142;16.290;2023-02-11T09:31:03;25.58;;;13.05;;
14094;SDS011;18096;48.142;16.290;2023-02-11T09:33:30;30.02;;;14.77;;
14094;SDS011;18096;48.142;16.290;2023-02-11T09:35:59;24.73;;;14.48;;
14094;SDS011;18096;48.142;16.290;2023-02-11T09:38:28;30.88;;;12.70;;
14094;SDS011;18096;48.142;16.290;2023-02-11T09:40:54;24.38;;;12.52;;
14094;SDS011;18096;48.142;16.290;2023-02-11T09:43:21;22.13;;;12.90;;
14094;SDS011;18096;48.142;16.290;2023-02-11T09:45:52;20.10;;;11.18;;
14094;SDS011;18096;48.142;16.290;2023-02-11T09:48:20;26.10;;;12.83;;
14094;SDS011;18096;48.142;16.290;2023-02-11T09:50:50;15.88;;;11.10;;
14094;SDS011;18096;48.142;16.290;2023-02-11T09:53:24;20.92;;;12.30;;
14094;SDS011;18096;48.142;16.290;2023-02-11T09:55:52;22.83;;;12.65;;
14094;SDS011;18096;48.142;16.290;2023-02-11T09:58:31;26.15;;;12.30;;
14094;SDS011;18096;48.142;16.290;2023-02-11T10:20:48;19.10;;;10.80;;
14094;SDS011;18096;48.142;16.290;2023-02-11T10:23:30;18.95;;;10.40;;
14094;SDS011;18096;48.142;16.290;2023-02-11T10:25:59;19.30;;;10.15;;
14094;SDS011;18096;48.142;16.290;2023-02-11T10:28:30;16.52;;;10.70;;
14094;SDS011;18096;48.142;16.290;2023-02-11T10:31:07;17.98;;;10.65;;
14094;SDS011;18096;48.142;16.290;2023-02-11T10:36:19;17.45;;;9.80;;
14094;SDS011;18096;48.142;16.290;2023-02-11T10:38:49;18.92;;;9.57;;
14094;SDS011;18096;48.142;16.290;2023-02-11T10:41:16;19.20;;;9.70;;
14094;SDS011;18096;48.142;16.290;2023-02-11T10:43:45;21.15;;;10.77;;
14094;SDS011;18096;48.142;16.290;2023-02-11T10:46:16;12.87;;;9.23;;
14094;SDS011;18096;48.142;16.290;2023-02-11T10:48:50;19.02;;;9.90;;
14094;SDS011;18096;48.142;16.290;2023-02-11T10:51:19;13.82;;;8.73;;
14094;SDS011;18096;48.142;16.290;2023-02-11T10:53:47;19.65;;;9.43;;
14094;SDS011;18096;48.142;16.290;2023-02-11T10:56:24;14.98;;;9.15;;
14094;SDS011;18096;48.142;16.290;2023-02-11T11:01:38;18.63;;;9.50;;
14094;SDS011;18096;48.142;16.290;2023-02-11T11:05:13;17.25;;;9.88;;
14094;SDS011;18096;48.142;16.290;2023-02-11T11:07:14;16.33;;;9.60;;
14094;SDS011;18096;48.142;16.290;2023-02-11T11:10:00;17.33;;;8.10;;
14094;SDS011;18096;48.142;16.290;2023-02-11T11:12:31;15.20;;;8.40;;
14094;SDS011;18096;48.142;16.290;2023-02-11T11:17:35;12.40;;;8.00;;
14094;SDS011;18096;48.142;16.290;2023-02-11T11:22:47;13.45;;;8.18;;
14094;SDS011;18096;48.142;16.290;2023-02-11T11:25:25;13.90;;;8.17;;
14094;SDS011;18096;48.142;16.290;2023-02-11T11:27:54;17.25;;;8.85;;
14094;SDS011;18096;48.142;16.290;2023-02-11T11:30:24;17.15;;;9.15;;
14094;SDS011;18096;48.142;16.290;2023-02-11T11:33:03;15.93;;;8.73;;
14094;SDS011;18096;48.142;16.290;2023-02-11T11:35:29;14.50;;;8.10;;
14094;SDS011;18096;48.142;16.290;2023-02-11T11:38:02;17.17;;;8.80;;
14094;SDS011;18096;48.142;16.290;2023-02-11T11:40:34;11.25;;;7.53;;
14094;SDS011;18096;48.142;16.290;2023-02-11T11:45:55;14.57;;;8.07;;
14094;SDS011;18096;48.142;16.290;2023-02-11T11:48:27;12.27;;;7.65;;
14094;SDS011;18096;48.142;16.290;2023-02-11T11:51:01;11.88;;;7.18;;
14094;SDS011;18096;48.142;16.290;2023-02-11T11:58:59;8.57;;;6.25;;
14094;SDS011;18096;48.142;16.290;2023-02-11T12:12:18;15.68;;;7.32;;
14094;SDS011;18096;48.142;16.290;2023-02-11T12:15:29;6.80;;;4.80;;
14094;SDS011;18096;48.142;16.290;2023-02-11T12:23:29;5.33;;;4.10;;
14094;SDS011;18096;48.142;16.290;2023-02-11T12:26:16;9.10;;;4.90;;
14094;SDS011;18096;48.142;16.290;2023-02-11T12:29:05;7.40;;;4.83;;
14094;SDS011;18096;48.142;16.290;2023-02-11T12:52:27;7.80;;;4.80;;
14094;SDS011;18096;48.142;16.290;2023-02-11T12:55:08;6.40;;;3.60;;
14094;SDS011;18096;48.142;16.290;2023-02-11T12:57:43;7.20;;;4.77;;
14094;SDS011;18096;48.142;16.290;2023-02-11T13:00:16;9.80;;;5.07;;
14094;SDS011;18096;48.142;16.290;2023-02-11T13:02:57;9.73;;;5.57;;
14094;SDS011;18096;48.142;16.290;2023-02-11T13:08:26;9.30;;;4.87;;
14094;SDS011;18096;48.142;16.290;2023-02-11T13:11:02;6.23;;;5.73;;
14094;SDS011;18096;48.142;16.290;2023-02-11T13:13:50;5.53;;;4.50;;
14094;SDS011;18096;48.142;16.290;2023-02-11T13:19:14;7.37;;;5.93;;
14094;SDS011;18096;48.142;16.290;2023-02-11T13:24:43;24.80;;;5.83;;
14094;SDS011;18096;48.142;16.290;2023-02-11T13:27:11;8.03;;;6.83;;
14094;SDS011;18096;48.142;16.290;2023-02-11T13:36:09;14.27;;;7.10;;
14094;SDS011;18096;48.142;16.290;2023-02-11T13:38:34;9.13;;;7.20;;
14094;SDS011;18096;48.142;16.290;2023-02-11T13:41:15;10.23;;;5.40;;
14094;SDS011;18096;48.142;16.290;2023-02-11T13:43:46;10.67;;;6.47;;
14094;SDS011;18096;48.142;16.290;2023-02-11T13:47:04;13.50;;;8.57;;
14094;SDS011;18096;48.142;16.290;2023-02-11T13:49:35;16.00;;;6.10;;
14094;SDS011;18096;48.142;16.290;2023-02-11T13:52:28;10.10;;;5.63;;
14094;SDS011;18096;48.142;16.290;2023-02-11T13:55:04;5.67;;;4.60;;
14094;SDS011;18096;48.142;16.290;2023-02-11T13:57:38;17.87;;;8.43;;
14094;SDS011;18096;48.142;16.290;2023-02-11T14:03:16;12.10;;;7.73;;
14094;SDS011;18096;48.142;16.290;2023-02-11T14:22:14;12.47;;;6.20;;
14094;SDS011;18096;48.142;16.290;2023-02-11T14:41:15;16.50;;;7.93;;
14094;SDS011;18096;48.142;16.290;2023-02-11T14:43:46;25.03;;;9.27;;
14094;SDS011;18096;48.142;16.290;2023-02-11T14:46:17;13.47;;;7.63;;
14094;SDS011;18096;48.142;16.290;2023-02-11T14:48:46;7.87;;;6.50;;
14094;SDS011;18096;48.142;16.290;2023-02-11T14:51:23;10.40;;;5.87;;
14094;SDS011;18096;48.142;16.290;2023-02-11T14:53:57;16.70;;;6.47;;
14094;SDS011;18096;48.142;16.290;2023-02-11T14:56:30;9.10;;;5.20;;
14094;SDS011;18096;48.142;16.290;2023-02-11T14:58:58;9.30;;;4.87;;
14094;SDS011;18096;48.142;16.290;2023-02-11T15:03:58;13.33;;;6.90;;
14094;SDS011;18096;48.142;16.290;2023-02-11T15:06:29;13.87;;;6.27;;
14094;SDS011;18096;48.142;16.290;2023-02-11T15:09:05;9.73;;;5.00;;
14094;SDS011;18096;48.142;16.290;2023-02-11T15:11:58;5.70;;;4.77;;
14094;SDS011;18096;48.142;16.290;2023-02-11T15:14:26;8.93;;;4.83;;
14094;SDS011;18096;48.142;16.290;2023-02-11T15:16:54;18.03;;;8.13;;
14094;SDS011;18096;48.142;16.290;2023-02-11T15:21:54;8.03;;;6.10;;
14094;SDS011;18096;48.142;16.290;2023-02-11T15:24:27;5.77;;;5.00;;
14094;SDS011;18096;48.142;16.290;2023-02-11T15:26:59;5.90;;;5.43;;
14094;SDS011;18096;48.142;16.290;2023-02-11T15:29:38;6.83;;;4.70;;
14094;SDS011;18096;48.142;16.290;2023-02-11T15:32:23;13.37;;;4.60;;
14094;SDS011;18096;48.142;16.290;2023-02-11T15:34:52;9.70;;;5.43;;
14094;SDS011;18096;48.142;16.290;2023-02-11T15:37:22;9.93;;;5.30;;
14094;SDS011;18096;48.142;16.290;2023-02-11T15:39:51;10.03;;;5.13;;
14094;SDS011;18096;48.142;16.290;2023-02-11T15:42:19;5.63;;;4.10;;
14094;SDS011;18096;48.142;16.290;2023-02-11T15:44:49;6.67;;;5.00;;
14094;SDS011;18096;48.142;16.290;2023-02-11T15:47:33;10.20;;;5.10;;
14094;SDS011;18096;48.142;16.290;2023-02-11T15:49:59;5.23;;;4.73;;
14094;SDS011;18096;48.142;16.290;2023-02-11T15:52:25;9.47;;;4.30;;
14094;SDS011;18096;48.142;16.290;2023-02-11T15:54:53;11.30;;;3.77;;
14094;SDS011;18096;48.142;16.290;2023-02-11T15:57:24;8.73;;;5.30;;
14094;SDS011;18096;48.142;16.290;2023-02-11T15:59:51;7.93;;;4.97;;
14094;SDS011;18096;48.142;16.290;2023-02-11T16:02:30;6.17;;;4.43;;
14094;SDS011;18096;48.142;16.290;2023-02-11T16:04:58;6.30;;;4.50;;
14094;SDS011;18096;48.142;16.290;2023-02-11T16:07:47;5.20;;;4.77;;
14094;SDS011;18096;48.142;16.290;2023-02-11T16:13:15;4.30;;;4.03;;
14094;SDS011;18096;48.142;16.290;2023-02-11T16:15:51;6.97;;;4.40;;
14094;SDS011;18096;48.142;16.290;2023-02-11T16:20:50;6.10;;;5.50;;
14094;SDS011;18096;48.142;16.290;2023-02-11T16:23:21;7.57;;;4.00;;
14094;SDS011;18096;48.142;16.290;2023-02-11T16:26:02;8.03;;;5.37;;
14094;SDS011;18096;48.142;16.290;2023-02-11T16:28:35;10.70;;;6.30;;
14094;SDS011;18096;48.142;16.290;2023-02-11T16:31:02;5.20;;;4.70;;
14094;SDS011;18096;48.142;16.290;2023-02-11T16:33:28;7.17;;;4.93;;
14094;SDS011;18096;48.142;16.290;2023-02-11T16:35:54;5.20;;;4.73;;
14094;SDS011;18096;48.142;16.290;2023-02-11T16:38:21;4.60;;;3.97;;
14094;SDS011;18096;48.142;16.290;2023-02-11T16:40:48;20.57;;;4.67;;
14094;SDS011;18096;48.142;16.290;2023-02-11T16:43:18;5.13;;;4.27;;
14094;SDS011;18096;48.142;16.290;2023-02-11T16:45:44;5.10;;;4.60;;
14094;SDS011;18096;48.142;16.290;2023-02-11T16:48:12;8.70;;;5.47;;
14094;SDS011;18096;48.142;16.290;2023-02-11T16:50:43;4.70;;;4.40;;
14094;SDS011;18096;48.142;16.290;2023-02-11T16:53:12;5.67;;;5.20;;
14094;SDS011;18096;48.142;16.290;2023-02-11T16:55:50;8.90;;;6.40;;
14094;SDS011;18096;48.142;16.290;2023-02-11T16:58:18;9.63;;;6.40;;
14094;SDS011;18096;48.142;16.290;2023-02-11T17:00:44;4.70;;;4.40;;
14094;SDS011;18096;48.142;16.290;2023-02-11T17:03:14;6.00;;;5.50;;
14094;SDS011;18096;48.142;16.290;2023-02-11T17:05:44;3.80;;;3.50;;
14094;SDS011;18096;48.142;16.290;2023-02-11T17:08:10;7.07;;;5.83;;
14094;SDS011;18096;48.142;16.290;2023-02-11T17:10:36;5.37;;;4.77;;
14094;SDS011;18096;48.142;16.290;2023-02-11T17:13:04;7.43;;;5.33;;
14094;SDS011;18096;48.142;16.290;2023-02-11T17:15:30;12.93;;;5.40;;
14094;SDS011;18096;48.142;16.290;2023-02-11T17:17:57;8.50;;;6.60;;
14094;SDS011;18096;48.142;16.290;2023-02-11T17:20:24;11.13;;;6.07;;
14094;SDS011;18096;48.142;16.290;2023-02-11T17:22:51;6.50;;;6.03;;
14094;SDS011;18096;48.142;16.290;2023-02-11T17:25:19;11.93;;;6.30;;
14094;SDS011;18096;48.142;16.290;2023-02-11T17:27:45;13.77;;;7.50;;